sensor_id;sensor_type;location;lat;lon;timestamp;pressure;altitude;pressure_sealevel;temperature;humidity
1401;BME280;46518;48.842;8.926;2023-04-25T00:00:26;96522.13;;;7.43;100.00
1401;BME280;46518;48.842;8.926;2023-04-25T00:02:54;96520.94;;;7.33;100.00
1401;BME280;46518;48.842;8.926;2023-04-25T00:05:24;96520.16;;;7.33;100.00
1401;BME280;46518;48.842;8.926;2023-04-25T00:07:52;96507.47;;;7.42;100.00
1401;BME280;46518;48.842;8.926;2023-04-25T00:10:21;96508.09;;;7.49;100.00
1401;BME280;46518;48.842;8.926;2023-04-25T00:12:50;96497.94;;;7.52;100.00
1401;BME280;46518;48.842;8.926;2023-04-25T00:15:19;96506.66;;;7.41;100.00
1401;BME280;46518;48.842;8.926;2023-04-25T00:17:47;96510.66;;;7.27;100.00
1401;BME280;46518;48.842;8.926;2023-04-25T00:20:15;96523.31;;;7.18;100.00
1401;BME280;46518;48.842;8.926;2023-04-25T00:22:43;96523.31;;;7.18;100.00
1401;BME280;46518;48.842;8.926;2023-04-25T00:25:12;96523.59;;;7.17;100.00
1401;BME280;46518;48.842;8.926;2023-04-25T00:27:40;96513.81;;;7.12;100.00
1401;BME280;46518;48.842;8.926;2023-04-25T00:30:11;96520.88;;;7.11;100.00
1401;BME280;46518;48.842;8.926;2023-04-25T00:32:40;96514.47;;;7.19;100.00
1401;BME280;46518;48.842;8.926;2023-04-25T00:35:09;96514.75;;;7.23;100.00
1401;BME280;46518;48.842;8.926;2023-04-25T00:37:37;96515.81;;;7.22;100.00
1401;BME280;46518;48.842;8.926;2023-04-25T00:40:06;96514.06;;;7.44;100.00
1401;BME280;46518;48.842;8.926;2023-04-25T00:42:35;96509.75;;;7.55;99.77
1401;BME280;46518;48.842;8.926;2023-04-25T00:45:06;96511.09;;;7.57;99.89
1401;BME280;46518;48.842;8.926;2023-04-25T00:47:37;96506.91;;;7.56;98.38
1401;BME280;46518;48.842;8.926;2023-04-25T00:50:06;96509.88;;;7.65;98.36
1401;BME280;46518;48.842;8.926;2023-04-25T00:52:35;96501.09;;;7.71;98.60
1401;BME280;46518;48.842;8.926;2023-04-25T00:55:04;96508.41;;;7.52;98.65
1401;BME280;46518;48.842;8.926;2023-04-25T00:57:33;96498.97;;;7.51;98.04
1401;BME280;46518;48.842;8.926;2023-04-25T01:00:02;96500.06;;;7.55;97.54
1401;BME280;46518;48.842;8.926;2023-04-25T01:02:32;96488.63;;;7.62;97.15
1401;BME280;46518;48.842;8.926;2023-04-25T01:05:02;96483.94;;;7.64;96.80
1401;BME280;46518;48.842;8.926;2023-04-25T01:07:31;96487.47;;;7.52;95.99
1401;BME280;46518;48.842;8.926;2023-04-25T01:09:59;96489.84;;;7.54;96.99
1401;BME280;46518;48.842;8.926;2023-04-25T01:12:29;96487.16;;;7.49;97.55
1401;BME280;46518;48.842;8.926;2023-04-25T01:14:57;96492.63;;;7.47;97.53
1401;BME280;46518;48.842;8.926;2023-04-25T01:17:25;96491.44;;;7.38;96.83
1401;BME280;46518;48.842;8.926;2023-04-25T01:19:54;96488.97;;;7.48;95.95
1401;BME280;46518;48.842;8.926;2023-04-25T01:22:23;96485.47;;;7.60;95.32
1401;BME280;46518;48.842;8.926;2023-04-25T01:24:52;96482.19;;;7.69;93.99
1401;BME280;46518;48.842;8.926;2023-04-25T01:27:21;96479.66;;;7.57;93.56
1401;BME280;46518;48.842;8.926;2023-04-25T01:29:50;96487.06;;;7.44;94.26
1401;BME280;46518;48.842;8.926;2023-04-25T01:32:19;96482.38;;;7.46;95.28
1401;BME280;46518;48.842;8.926;2023-04-25T01:34:48;96491.44;;;7.38;96.15
1401;BME280;46518;48.842;8.926;2023-04-25T01:37:16;96492.78;;;7.24;96.86
1401;BME280;46518;48.842;8.926;2023-04-25T01:39:46;96489.94;;;7.25;96.95
1401;BME280;46518;48.842;8.926;2023-04-25T01:42:15;96491.84;;;7.13;97.09
1401;BME280;46518;48.842;8.926;2023-04-25T01:44:43;96494.69;;;7.28;97.39
1401;BME280;46518;48.842;8.926;2023-04-25T01:47:12;96490.34;;;7.34;98.04
1401;BME280;46518;48.842;8.926;2023-04-25T01:49:40;96486.63;;;7.30;97.43
1401;BME280;46518;48.842;8.926;2023-04-25T01:52:08;96481.59;;;7.28;97.96
1401;BME280;46518;48.842;8.926;2023-04-25T01:54:36;96485.13;;;7.34;97.59
1401;BME280;46518;48.842;8.926;2023-04-25T01:57:06;96488.28;;;7.19;98.00
1401;BME280;46518;48.842;8.926;2023-04-25T01:59:36;96482.00;;;7.20;99.11
1401;BME280;46518;48.842;8.926;2023-04-25T02:02:12;96471.69;;;7.30;98.47
1401;BME280;46518;48.842;8.926;2023-04-25T02:04:40;96474.78;;;7.27;98.75
1401;BME280;46518;48.842;8.926;2023-04-25T02:07:09;96479.09;;;7.17;98.83
1401;BME280;46518;48.842;8.926;2023-04-25T02:09:49;96479.41;;;7.03;100.00
1401;BME280;46518;48.842;8.926;2023-04-25T02:12:20;96473.88;;;7.17;99.13
1401;BME280;46518;48.842;8.926;2023-04-25T02:15:06;96480.19;;;7.21;99.88
1401;BME280;46518;48.842;8.926;2023-04-25T02:18:03;96480.34;;;7.31;99.03
1401;BME280;46518;48.842;8.926;2023-04-25T02:20:33;96483.91;;;7.42;99.22
1401;BME280;46518;48.842;8.926;2023-04-25T02:23:01;96478.84;;;7.35;99.00
1401;BME280;46518;48.842;8.926;2023-04-25T02:25:30;96467.28;;;7.53;99.03
1401;BME280;46518;48.842;8.926;2023-04-25T02:27:59;96466.47;;;7.69;98.17
1401;BME280;46518;48.842;8.926;2023-04-25T02:30:28;96460.53;;;7.74;96.67
1401;BME280;46518;48.842;8.926;2023-04-25T02:32:56;96467.50;;;7.68;96.54
1401;BME280;46518;48.842;8.926;2023-04-25T02:35:25;96472.88;;;7.78;95.54
1401;BME280;46518;48.842;8.926;2023-04-25T02:37:53;96468.84;;;7.49;96.11
1401;BME280;46518;48.842;8.926;2023-04-25T02:40:21;96472.47;;;7.48;96.00
1401;BME280;46518;48.842;8.926;2023-04-25T02:42:50;96472.78;;;7.51;95.76
1401;BME280;46518;48.842;8.926;2023-04-25T02:45:19;96471.88;;;7.63;94.95
1401;BME280;46518;48.842;8.926;2023-04-25T02:47:49;96468.47;;;7.62;94.80
1401;BME280;46518;48.842;8.926;2023-04-25T02:50:18;96467.28;;;7.53;95.60
1401;BME280;46518;48.842;8.926;2023-04-25T02:52:46;96466.75;;;7.51;96.58
1401;BME280;46518;48.842;8.926;2023-04-25T02:55:19;96453.53;;;6.73;100.00
1401;BME280;46518;48.842;8.926;2023-04-25T02:57:47;96451.34;;;6.82;100.00
1401;BME280;46518;48.842;8.926;2023-04-25T03:00:27;96452.06;;;6.94;100.00
1401;BME280;46518;48.842;8.926;2023-04-25T03:02:56;96450.25;;;6.95;100.00
1401;BME280;46518;48.842;8.926;2023-04-25T03:05:24;96451.25;;;6.94;100.00
1401;BME280;46518;48.842;8.926;2023-04-25T03:07:52;96451.97;;;7.06;100.00
1401;BME280;46518;48.842;8.926;2023-04-25T03:10:20;96437.56;;;6.86;100.00
1401;BME280;46518;48.842;8.926;2023-04-25T03:12:49;96448.41;;;6.78;100.00
1401;BME280;46518;48.842;8.926;2023-04-25T03:15:17;96441.03;;;6.75;100.00
1401;BME280;46518;48.842;8.926;2023-04-25T03:17:47;96450.72;;;6.91;100.00
1401;BME280;46518;48.842;8.926;2023-04-25T03:20:15;96448.03;;;6.86;100.00
1401;BME280;46518;48.842;8.926;2023-04-25T03:22:43;96446.66;;;6.84;100.00
1401;BME280;46518;48.842;8.926;2023-04-25T03:25:12;96450.53;;;6.81;100.00
1401;BME280;46518;48.842;8.926;2023-04-25T03:27:40;96452.63;;;6.79;100.00
1401;BME280;46518;48.842;8.926;2023-04-25T03:30:09;96455.31;;;6.84;100.00
1401;BME280;46518;48.842;8.926;2023-04-25T03:32:39;96455.13;;;6.91;100.00
1401;BME280;46518;48.842;8.926;2023-04-25T03:35:08;96455.69;;;7.10;100.00
1401;BME280;46518;48.842;8.926;2023-04-25T03:37:36;96456.47;;;7.27;100.00
1401;BME280;46518;48.842;8.926;2023-04-25T03:40:07;96445.31;;;7.15;100.00
1401;BME280;46518;48.842;8.926;2023-04-25T03:43:02;96448.97;;;7.14;100.00
1401;BME280;46518;48.842;8.926;2023-04-25T03:45:30;96446.56;;;7.12;100.00
1401;BME280;46518;48.842;8.926;2023-04-25T03:47:58;96448.00;;;7.03;100.00
1401;BME280;46518;48.842;8.926;2023-04-25T03:50:30;96447.13;;;6.81;100.00
1401;BME280;46518;48.842;8.926;2023-04-25T03:52:58;96438.56;;;6.68;100.00
1401;BME280;46518;48.842;8.926;2023-04-25T03:55:29;96438.41;;;6.75;100.00
1401;BME280;46518;48.842;8.926;2023-04-25T03:57:58;96440.56;;;6.78;100.00
1401;BME280;46518;48.842;8.926;2023-04-25T04:00:26;96446.75;;;6.72;100.00
1401;BME280;46518;48.842;8.926;2023-04-25T04:02:54;96437.09;;;6.89;100.00
1401;BME280;46518;48.842;8.926;2023-04-25T04:05:23;96439.69;;;7.06;100.00
1401;BME280;46518;48.842;8.926;2023-04-25T04:07:56;96441.13;;;7.14;100.00
1401;BME280;46518;48.842;8.926;2023-04-25T04:10:24;96436.66;;;7.15;100.00
1401;BME280;46518;48.842;8.926;2023-04-25T04:12:54;96448.13;;;7.30;100.00
1401;BME280;46518;48.842;8.926;2023-04-25T04:15:22;96442.56;;;7.44;100.00
1401;BME280;46518;48.842;8.926;2023-04-25T04:17:50;96446.47;;;7.63;99.40
1401;BME280;46518;48.842;8.926;2023-04-25T04:20:19;96447.16;;;7.75;98.15
1401;BME280;46518;48.842;8.926;2023-04-25T04:22:48;96446.25;;;7.87;98.22
1401;BME280;46518;48.842;8.926;2023-04-25T04:25:18;96455.88;;;7.81;97.70
1401;BME280;46518;48.842;8.926;2023-04-25T04:28:18;96458.97;;;7.78;97.86
1401;BME280;46518;48.842;8.926;2023-04-25T04:30:54;96453.44;;;7.74;97.57
1401;BME280;46518;48.842;8.926;2023-04-25T04:33:22;96466.34;;;7.59;97.40
1401;BME280;46518;48.842;8.926;2023-04-25T04:35:56;96456.34;;;7.56;97.45
1401;BME280;46518;48.842;8.926;2023-04-25T04:38:25;96461.44;;;7.46;98.01
1401;BME280;46518;48.842;8.926;2023-04-25T04:40:57;96465.75;;;7.35;99.42
1401;BME280;46518;48.842;8.926;2023-04-25T04:43:34;96471.53;;;7.20;99.10
1401;BME280;46518;48.842;8.926;2023-04-25T04:46:22;96465.94;;;7.11;100.00
1401;BME280;46518;48.842;8.926;2023-04-25T04:49:11;96477.91;;;7.07;100.00
1401;BME280;46518;48.842;8.926;2023-04-25T04:51:49;96477.91;;;7.07;100.00
1401;BME280;46518;48.842;8.926;2023-04-25T04:54:36;96482.56;;;6.88;100.00
1401;BME280;46518;48.842;8.926;2023-04-25T04:57:32;96486.88;;;6.66;100.00
1401;BME280;46518;48.842;8.926;2023-04-25T05:00:19;96489.97;;;6.63;100.00
1401;BME280;46518;48.842;8.926;2023-04-25T05:03:06;96487.31;;;6.46;100.00
1401;BME280;46518;48.842;8.926;2023-04-25T05:05:41;96490.94;;;6.57;100.00
1401;BME280;46518;48.842;8.926;2023-04-25T05:08:29;96485.38;;;6.53;100.00
1401;BME280;46518;48.842;8.926;2023-04-25T05:11:23;96477.72;;;6.35;100.00
1401;BME280;46518;48.842;8.926;2023-04-25T05:14:28;96481.13;;;6.35;100.00
1401;BME280;46518;48.842;8.926;2023-04-25T05:17:09;96482.91;;;6.46;100.00
1401;BME280;46518;48.842;8.926;2023-04-25T05:20:01;96481.00;;;6.59;100.00
1401;BME280;46518;48.842;8.926;2023-04-25T05:22:52;96481.50;;;6.56;100.00
1401;BME280;46518;48.842;8.926;2023-04-25T05:25:42;96480.09;;;6.36;100.00
1401;BME280;46518;48.842;8.926;2023-04-25T05:28:20;96483.59;;;6.42;100.00
1401;BME280;46518;48.842;8.926;2023-04-25T05:31:28;96485.72;;;6.57;100.00
1401;BME280;46518;48.842;8.926;2023-04-25T05:34:16;96481.56;;;6.61;100.00
1401;BME280;46518;48.842;8.926;2023-04-25T05:36:56;96475.25;;;6.57;100.00
1401;BME280;46518;48.842;8.926;2023-04-25T05:39:24;96474.16;;;6.69;100.00
1401;BME280;46518;48.842;8.926;2023-04-25T05:42:28;96483.47;;;6.94;100.00
1401;BME280;46518;48.842;8.926;2023-04-25T05:45:16;96487.50;;;7.02;100.00
1401;BME280;46518;48.842;8.926;2023-04-25T05:47:54;96485.53;;;7.09;100.00
1401;BME280;46518;48.842;8.926;2023-04-25T05:50:35;96488.28;;;7.19;100.00
1401;BME280;46518;48.842;8.926;2023-04-25T05:53:13;96492.97;;;7.17;100.00
1401;BME280;46518;48.842;8.926;2023-04-25T05:55:43;96490.56;;;7.32;100.00
1401;BME280;46518;48.842;8.926;2023-04-25T05:58:23;96487.69;;;7.51;100.00
1401;BME280;46518;48.842;8.926;2023-04-25T06:00:51;96486.47;;;7.37;100.00
1401;BME280;46518;48.842;8.926;2023-04-25T06:03:20;96491.84;;;6.96;100.00
1401;BME280;46518;48.842;8.926;2023-04-25T06:05:50;96490.75;;;7.09;100.00
1401;BME280;46518;48.842;8.926;2023-04-25T06:08:19;96490.16;;;7.24;100.00
1401;BME280;46518;48.842;8.926;2023-04-25T06:10:47;96491.75;;;7.42;100.00
1401;BME280;46518;48.842;8.926;2023-04-25T06:13:16;96494.63;;;7.40;100.00
1401;BME280;46518;48.842;8.926;2023-04-25T06:15:44;96494.47;;;7.47;100.00
1401;BME280;46518;48.842;8.926;2023-04-25T06:18:12;96495.66;;;7.22;100.00
1401;BME280;46518;48.842;8.926;2023-04-25T06:20:42;96499.69;;;7.30;100.00
1401;BME280;46518;48.842;8.926;2023-04-25T06:23:10;96497.00;;;7.25;100.00
1401;BME280;46518;48.842;8.926;2023-04-25T06:25:49;96496.19;;;7.41;100.00
1401;BME280;46518;48.842;8.926;2023-04-25T06:28:17;96500.63;;;7.41;100.00
1401;BME280;46518;48.842;8.926;2023-04-25T06:30:48;96492.63;;;7.30;100.00
1401;BME280;46518;48.842;8.926;2023-04-25T06:33:18;96485.75;;;7.24;100.00
1401;BME280;46518;48.842;8.926;2023-04-25T06:35:49;96487.66;;;7.29;100.00
1401;BME280;46518;48.842;8.926;2023-04-25T06:38:22;96489.47;;;7.28;100.00
1401;BME280;46518;48.842;8.926;2023-04-25T06:40:51;96488.28;;;7.19;100.00
1401;BME280;46518;48.842;8.926;2023-04-25T06:43:20;96495.81;;;7.32;100.00
1401;BME280;46518;48.842;8.926;2023-04-25T06:46:01;96492.88;;;7.12;100.00
1401;BME280;46518;48.842;8.926;2023-04-25T06:48:31;96488.69;;;6.94;100.00
1401;BME280;46518;48.842;8.926;2023-04-25T06:51:02;96492.31;;;6.93;100.00
1401;BME280;46518;48.842;8.926;2023-04-25T06:53:30;96484.47;;;6.93;100.00
1401;BME280;46518;48.842;8.926;2023-04-25T06:56:02;96481.69;;;6.83;100.00
1401;BME280;46518;48.842;8.926;2023-04-25T06:58:54;96486.00;;;6.89;100.00
1401;BME280;46518;48.842;8.926;2023-04-25T07:01:48;96488.38;;;7.07;100.00
1401;BME280;46518;48.842;8.926;2023-04-25T07:04:20;96493.13;;;7.10;100.00
1401;BME280;46518;48.842;8.926;2023-04-25T07:06:53;96490.44;;;7.22;100.00
1401;BME280;46518;48.842;8.926;2023-04-25T07:09:30;96493.28;;;7.21;100.00
1401;BME280;46518;48.842;8.926;2023-04-25T07:12:00;96497.16;;;7.18;100.00
1401;BME280;46518;48.842;8.926;2023-04-25T07:14:29;96500.75;;;7.29;100.00
1401;BME280;46518;48.842;8.926;2023-04-25T07:16:59;96497.63;;;7.32;100.00
1401;BME280;46518;48.842;8.926;2023-04-25T07:19:51;96507.69;;;7.57;100.00
1401;BME280;46518;48.842;8.926;2023-04-25T07:22:58;96507.47;;;7.42;100.00
1401;BME280;46518;48.842;8.926;2023-04-25T07:26:00;96502.09;;;7.31;100.00
1401;BME280;46518;48.842;8.926;2023-04-25T07:29:41;96510.31;;;7.57;100.00
1401;BME280;46518;48.842;8.926;2023-04-25T07:32:35;96507.13;;;7.55;100.00
1401;BME280;46518;48.842;8.926;2023-04-25T07:35:21;96517.31;;;7.51;100.00
1401;BME280;46518;48.842;8.926;2023-04-25T07:38:33;96508.97;;;7.54;100.00
1401;BME280;46518;48.842;8.926;2023-04-25T07:41:19;96514.91;;;7.33;100.00
1401;BME280;46518;48.842;8.926;2023-04-25T07:44:05;96509.94;;;7.31;100.00
1401;BME280;46518;48.842;8.926;2023-04-25T07:47:04;96518.16;;;7.57;100.00
1401;BME280;46518;48.842;8.926;2023-04-25T07:49:34;96526.25;;;7.55;100.00
1401;BME280;46518;48.842;8.926;2023-04-25T07:52:03;96522.34;;;7.58;100.00
1401;BME280;46518;48.842;8.926;2023-04-25T07:54:35;96526.97;;;7.51;100.00
1401;BME280;46518;48.842;8.926;2023-04-25T07:57:12;96530.28;;;7.63;100.00
1401;BME280;46518;48.842;8.926;2023-04-25T07:59:41;96534.88;;;7.73;100.00
1401;BME280;46518;48.842;8.926;2023-04-25T08:02:09;96533.63;;;7.59;100.00
1401;BME280;46518;48.842;8.926;2023-04-25T08:04:38;96542.09;;;7.66;100.00
1401;BME280;46518;48.842;8.926;2023-04-25T08:07:09;96545.53;;;7.49;100.00
1401;BME280;46518;48.842;8.926;2023-04-25T08:09:49;96549.66;;;7.62;100.00
1401;BME280;46518;48.842;8.926;2023-04-25T08:12:24;96551.56;;;7.67;100.00
1401;BME280;46518;48.842;8.926;2023-04-25T08:14:52;96552.91;;;7.69;100.00
1401;BME280;46518;48.842;8.926;2023-04-25T08:17:23;96553.28;;;7.61;100.00
1401;BME280;46518;48.842;8.926;2023-04-25T08:19:51;96563.22;;;7.59;100.00
1401;BME280;46518;48.842;8.926;2023-04-25T08:22:28;96564.03;;;7.43;100.00
1401;BME280;46518;48.842;8.926;2023-04-25T08:25:15;96572.91;;;7.25;100.00
1401;BME280;46518;48.842;8.926;2023-04-25T08:27:43;96572.19;;;7.29;100.00
1401;BME280;46518;48.842;8.926;2023-04-25T08:30:12;96572.84;;;7.37;100.00
1401;BME280;46518;48.842;8.926;2023-04-25T08:32:42;96577.75;;;7.50;100.00
1401;BME280;46518;48.842;8.926;2023-04-25T08:35:29;96581.31;;;7.61;100.00
1401;BME280;46518;48.842;8.926;2023-04-25T08:37:57;96584.97;;;7.43;100.00
1401;BME280;46518;48.842;8.926;2023-04-25T08:40:28;96590.19;;;7.26;100.00
1401;BME280;46518;48.842;8.926;2023-04-25T08:43:18;96593.94;;;7.30;100.00
1401;BME280;46518;48.842;8.926;2023-04-25T08:45:47;96596.63;;;7.35;100.00
1401;BME280;46518;48.842;8.926;2023-04-25T08:48:43;96595.78;;;7.46;100.00
1401;BME280;46518;48.842;8.926;2023-04-25T08:51:17;96600.91;;;7.41;100.00
1401;BME280;46518;48.842;8.926;2023-04-25T08:53:51;96605.03;;;7.37;100.00
1401;BME280;46518;48.842;8.926;2023-04-25T08:56:25;96613.13;;;7.35;100.00
1401;BME280;46518;48.842;8.926;2023-04-25T08:58:56;96614.81;;;7.42;100.00
1401;BME280;46518;48.842;8.926;2023-04-25T09:01:24;96611.84;;;7.38;100.00
1401;BME280;46518;48.842;8.926;2023-04-25T09:03:53;96618.22;;;7.42;100.00
1401;BME280;46518;48.842;8.926;2023-04-25T09:06:23;96620.97;;;7.35;100.00
1401;BME280;46518;48.842;8.926;2023-04-25T09:08:52;96626.91;;;7.14;100.00
1401;BME280;46518;48.842;8.926;2023-04-25T09:11:21;96626.59;;;6.99;100.00
1401;BME280;46518;48.842;8.926;2023-04-25T09:14:10;96636.97;;;6.94;100.00
1401;BME280;46518;48.842;8.926;2023-04-25T09:17:01;96637.53;;;6.96;100.00
1401;BME280;46518;48.842;8.926;2023-04-25T09:19:50;96642.09;;;7.00;100.00
1401;BME280;46518;48.842;8.926;2023-04-25T09:22:26;96645.06;;;6.92;100.00
1401;BME280;46518;48.842;8.926;2023-04-25T09:24:54;96648.56;;;6.98;100.00
1401;BME280;46518;48.842;8.926;2023-04-25T09:27:26;96655.28;;;6.94;100.00
1401;BME280;46518;48.842;8.926;2023-04-25T09:30:03;96657.28;;;6.86;100.00
1401;BME280;46518;48.842;8.926;2023-04-25T09:32:56;96659.22;;;6.79;100.00
1401;BME280;46518;48.842;8.926;2023-04-25T09:35:25;96666.25;;;6.79;100.00
1401;BME280;46518;48.842;8.926;2023-04-25T09:37:56;96667.41;;;6.71;100.00
1401;BME280;46518;48.842;8.926;2023-04-25T09:40:46;96676.66;;;6.62;100.00
1401;BME280;46518;48.842;8.926;2023-04-25T09:43:24;96682.88;;;6.61;100.00
1401;BME280;46518;48.842;8.926;2023-04-25T09:45:55;96681.69;;;6.52;100.00
1401;BME280;46518;48.842;8.926;2023-04-25T09:48:28;96681.22;;;6.55;100.00
1401;BME280;46518;48.842;8.926;2023-04-25T09:51:08;96686.56;;;6.48;100.00
1401;BME280;46518;48.842;8.926;2023-04-25T09:53:38;96694.84;;;6.45;100.00
1401;BME280;46518;48.842;8.926;2023-04-25T09:56:16;96691.56;;;6.50;100.00
1401;BME280;46518;48.842;8.926;2023-04-25T09:58:47;96697.47;;;6.57;100.00
1401;BME280;46518;48.842;8.926;2023-04-25T10:01:17;96700.19;;;6.50;100.00
1401;BME280;46518;48.842;8.926;2023-04-25T10:03:59;96703.47;;;6.57;100.00
1401;BME280;46518;48.842;8.926;2023-04-25T10:06:40;96704.16;;;6.53;100.00
1401;BME280;46518;48.842;8.926;2023-04-25T10:09:11;96707.69;;;6.58;100.00
1401;BME280;46518;48.842;8.926;2023-04-25T10:11:41;96710.06;;;6.60;100.00
1401;BME280;46518;48.842;8.926;2023-04-25T10:14:09;96714.28;;;6.49;100.00
1401;BME280;46518;48.842;8.926;2023-04-25T10:16:40;96719.28;;;6.51;100.00
1401;BME280;46518;48.842;8.926;2023-04-25T10:19:09;96726.66;;;6.65;100.00
1401;BME280;46518;48.842;8.926;2023-04-25T10:21:48;96734.53;;;6.42;100.00
1401;BME280;46518;48.842;8.926;2023-04-25T10:24:17;96751.56;;;6.33;100.00
1401;BME280;46518;48.842;8.926;2023-04-25T10:26:47;96743.13;;;6.19;100.00
1401;BME280;46518;48.842;8.926;2023-04-25T10:29:22;96731.22;;;6.23;100.00
1401;BME280;46518;48.842;8.926;2023-04-25T10:31:52;96750.19;;;6.18;100.00
1401;BME280;46518;48.842;8.926;2023-04-25T10:34:24;96753.47;;;6.14;100.00
1401;BME280;46518;48.842;8.926;2023-04-25T10:36:53;96760.53;;;6.25;100.00
1401;BME280;46518;48.842;8.926;2023-04-25T10:39:22;96760.56;;;6.37;100.00
1401;BME280;46518;48.842;8.926;2023-04-25T10:41:58;96762.59;;;6.35;100.00
1401;BME280;46518;48.842;8.926;2023-04-25T10:44:28;96764.84;;;6.31;100.00
1401;BME280;46518;48.842;8.926;2023-04-25T10:46:59;96772.81;;;6.60;100.00
1401;BME280;46518;48.842;8.926;2023-04-25T10:49:30;96771.00;;;6.60;100.00
1401;BME280;46518;48.842;8.926;2023-04-25T10:52:16;96773.50;;;6.55;100.00
1401;BME280;46518;48.842;8.926;2023-04-25T10:54:49;96765.88;;;6.65;100.00
1401;BME280;46518;48.842;8.926;2023-04-25T10:57:37;96781.00;;;6.52;100.00
1401;BME280;46518;48.842;8.926;2023-04-25T11:00:07;96785.91;;;6.60;100.00
1401;BME280;46518;48.842;8.926;2023-04-25T11:02:41;96782.03;;;6.51;100.00
1401;BME280;46518;48.842;8.926;2023-04-25T11:05:20;96789.63;;;6.40;100.00
1401;BME280;46518;48.842;8.926;2023-04-25T11:07:50;96789.41;;;6.30;100.00
1401;BME280;46518;48.842;8.926;2023-04-25T11:10:31;96794.41;;;6.32;100.00
1401;BME280;46518;48.842;8.926;2023-04-25T11:13:00;96791.34;;;6.35;100.00
1401;BME280;46518;48.842;8.926;2023-04-25T11:15:28;96782.25;;;6.37;100.00
1401;BME280;46518;48.842;8.926;2023-04-25T11:17:57;96795.78;;;6.46;100.00
1401;BME280;46518;48.842;8.926;2023-04-25T11:20:26;96798.03;;;6.31;100.00
1401;BME280;46518;48.842;8.926;2023-04-25T11:22:57;96795.09;;;6.27;100.00
1401;BME280;46518;48.842;8.926;2023-04-25T11:25:26;96801.31;;;6.26;100.00
1401;BME280;46518;48.842;8.926;2023-04-25T11:27:55;96790.28;;;6.24;100.00
1401;BME280;46518;48.842;8.926;2023-04-25T11:30:25;96791.34;;;6.35;100.00
1401;BME280;46518;48.842;8.926;2023-04-25T11:32:55;96798.13;;;6.24;100.00
1401;BME280;46518;48.842;8.926;2023-04-25T11:35:25;96797.88;;;6.14;100.00
1401;BME280;46518;48.842;8.926;2023-04-25T11:37:53;96797.44;;;6.29;100.00
1401;BME280;46518;48.842;8.926;2023-04-25T11:40:21;96803.63;;;6.34;100.00
1401;BME280;46518;48.842;8.926;2023-04-25T11:42:50;96806.09;;;6.17;100.00
1401;BME280;46518;48.842;8.926;2023-04-25T11:45:22;96799.38;;;6.21;100.00
1401;BME280;46518;48.842;8.926;2023-04-25T11:47:51;96803.22;;;6.19;100.00
1401;BME280;46518;48.842;8.926;2023-04-25T11:50:20;96803.94;;;6.14;100.00
1401;BME280;46518;48.842;8.926;2023-04-25T11:52:50;96805.38;;;6.10;100.00
1401;BME280;46518;48.842;8.926;2023-04-25T11:55:20;96806.09;;;6.17;100.00
1401;BME280;46518;48.842;8.926;2023-04-25T11:57:49;96798.28;;;6.29;100.00
1401;BME280;46518;48.842;8.926;2023-04-25T12:00:21;96807.50;;;6.55;100.00
1401;BME280;46518;48.842;8.926;2023-04-25T12:03:13;96785.53;;;6.56;100.00
1401;BME280;46518;48.842;8.926;2023-04-25T12:11:54;96808.72;;;6.88;100.00
1401;BME280;46518;48.842;8.926;2023-04-25T12:14:24;96814.66;;;6.83;100.00
1401;BME280;46518;48.842;8.926;2023-04-25T12:16:56;96810.44;;;6.94;100.00
1401;BME280;46518;48.842;8.926;2023-04-25T12:19:26;96813.84;;;6.95;100.00
1401;BME280;46518;48.842;8.926;2023-04-25T12:21:54;96811.47;;;6.93;100.00
1401;BME280;46518;48.842;8.926;2023-04-25T12:24:26;96812.47;;;7.04;100.00
1401;BME280;46518;48.842;8.926;2023-04-25T12:27:00;96808.72;;;7.00;100.00
1401;BME280;46518;48.842;8.926;2023-04-25T12:29:31;96815.84;;;7.28;100.00
1401;BME280;46518;48.842;8.926;2023-04-25T12:32:13;96825.44;;;7.51;100.00
1401;BME280;46518;48.842;8.926;2023-04-25T12:34:42;96832.25;;;7.64;100.00
1401;BME280;46518;48.842;8.926;2023-04-25T12:37:11;96824.44;;;7.81;100.00
1401;BME280;46518;48.842;8.926;2023-04-25T12:39:40;96826.50;;;7.78;100.00
1401;BME280;46518;48.842;8.926;2023-04-25T12:42:10;96817.63;;;7.80;100.00
1401;BME280;46518;48.842;8.926;2023-04-25T12:44:39;96825.88;;;7.88;100.00
1401;BME280;46518;48.842;8.926;2023-04-25T12:47:08;96827.34;;;7.96;100.00
1401;BME280;46518;48.842;8.926;2023-04-25T12:49:36;96816.84;;;7.96;100.00
1401;BME280;46518;48.842;8.926;2023-04-25T12:52:05;96827.81;;;7.93;100.00
1401;BME280;46518;48.842;8.926;2023-04-25T12:54:33;96819.75;;;8.11;100.00
1401;BME280;46518;48.842;8.926;2023-04-25T12:57:02;96822.72;;;8.32;100.00
1401;BME280;46518;48.842;8.926;2023-04-25T12:59:31;96826.44;;;8.19;100.00
1401;BME280;46518;48.842;8.926;2023-04-25T13:02:00;96832.94;;;8.16;100.00
1401;BME280;46518;48.842;8.926;2023-04-25T13:04:28;96836.38;;;8.17;100.00
1401;BME280;46518;48.842;8.926;2023-04-25T13:06:57;96838.28;;;7.93;98.10
1401;BME280;46518;48.842;8.926;2023-04-25T13:09:25;96839.25;;;8.04;100.00
1401;BME280;46518;48.842;8.926;2023-04-25T13:11:53;96840.06;;;8.04;100.00
1401;BME280;46518;48.842;8.926;2023-04-25T13:14:25;96827.03;;;7.92;100.00
1401;BME280;46518;48.842;8.926;2023-04-25T13:16:54;96844.38;;;8.10;100.00
1401;BME280;46518;48.842;8.926;2023-04-25T13:19:23;96847.84;;;8.16;98.47
1401;BME280;46518;48.842;8.926;2023-04-25T13:21:51;96846.16;;;8.21;100.00
1401;BME280;46518;48.842;8.926;2023-04-25T13:24:19;96845.25;;;8.16;100.00
1401;BME280;46518;48.842;8.926;2023-04-25T13:26:47;96845.00;;;8.17;100.00
1401;BME280;46518;48.842;8.926;2023-04-25T13:29:15;96848.69;;;8.16;97.83
1401;BME280;46518;48.842;8.926;2023-04-25T13:31:43;96844.28;;;8.05;100.00
1401;BME280;46518;48.842;8.926;2023-04-25T13:34:13;96845.41;;;8.26;100.00
1401;BME280;46518;48.842;8.926;2023-04-25T13:36:41;96845.94;;;8.40;100.00
1401;BME280;46518;48.842;8.926;2023-04-25T13:39:10;96842.56;;;8.28;100.00
1401;BME280;46518;48.842;8.926;2023-04-25T13:41:39;96844.69;;;8.31;100.00
1401;BME280;46518;48.842;8.926;2023-04-25T13:44:07;96851.84;;;8.47;98.26
1401;BME280;46518;48.842;8.926;2023-04-25T13:46:35;96844.69;;;8.59;99.62
1401;BME280;46518;48.842;8.926;2023-04-25T13:49:14;96838.38;;;8.77;99.40
1401;BME280;46518;48.842;8.926;2023-04-25T13:51:42;96853.94;;;9.01;96.34